createdAt,value
2018-01-27T00:01:05.774Z,69.17
2018-01-27T00:03:32.977Z,63.10
2018-01-27T00:06:00.120Z,72.53
2018-01-27T00:08:27.272Z,70.12
2018-01-27T00:10:54.430Z,63.05
2018-01-27T00:13:21.354Z,71.50
2018-01-27T00:15:48.277Z,71.07
2018-01-27T00:18:15.182Z,74.53
2018-01-27T00:20:42.308Z,71.15
2018-01-27T00:23:09.461Z,64.75
2018-01-27T00:25:36.320Z,64.03
2018-01-27T00:28:03.448Z,76.53
2018-01-27T00:30:30.338Z,67.28
2018-01-27T00:32:57.240Z,62.13
2018-01-27T00:35:24.392Z,70.32
2018-01-27T00:37:51.256Z,79.07
2018-01-27T00:40:18.116Z,73.62
2018-01-27T00:42:44.972Z,77.68
2018-01-27T00:45:12.172Z,75.20
2018-01-27T00:47:39.331Z,73.75
2018-01-27T00:50:06.584Z,88.15
2018-01-27T00:52:33.509Z,84.65
2018-01-27T00:55:00.672Z,77.37
2018-01-27T00:57:27.569Z,72.10
2018-01-27T00:59:54.464Z,66.75
2018-01-27T01:02:21.327Z,68.67
2018-01-27T01:04:48.226Z,80.35
2018-01-27T01:07:15.117Z,68.15
2018-01-27T01:09:42.244Z,76.37
2018-01-27T01:12:09.178Z,73.40
2018-01-27T01:14:36.346Z,75.57
2018-01-27T01:17:03.220Z,83.43
2018-01-27T01:19:30.125Z,82.80
2018-01-27T01:21:57.281Z,73.90
2018-01-27T01:24:24.428Z,84.30
2018-01-27T01:26:51.583Z,93.37
2018-01-27T01:29:18.505Z,95.25
2018-01-27T01:31:45.364Z,83.80
2018-01-27T01:34:12.521Z,80.90
2018-01-27T01:36:39.620Z,94.28
2018-01-27T01:39:07.333Z,74.80
2018-01-27T01:41:34.237Z,80.55
2018-01-27T01:44:01.151Z,94.25
2018-01-27T01:46:28.004Z,84.82
2018-01-27T01:49:09.781Z,86.37
2018-01-27T01:51:36.688Z,97.60
2018-01-27T01:54:03.564Z,94.43
2018-01-27T01:56:30.797Z,95.50
2018-01-27T01:58:57.953Z,101.05
2018-01-27T02:01:24.816Z,105.15
2018-01-27T02:03:51.940Z,80.05
2018-01-27T02:06:18.820Z,83.80
2018-01-27T02:08:46.193Z,88.80
2018-01-27T02:11:13.081Z,77.60
2018-01-27T02:13:40.341Z,70.35
2018-01-27T02:16:07.239Z,64.15
2018-01-27T02:18:34.119Z,69.12
2018-01-27T02:21:00.987Z,82.85
2018-01-27T02:23:28.120Z,76.60
2018-01-27T02:25:55.004Z,74.03
2018-01-27T02:28:21.899Z,66.87
2018-01-27T02:30:48.772Z,63.67
2018-01-27T02:33:16.010Z,60.08
2018-01-27T02:35:42.922Z,54.58
2018-01-27T02:38:09.786Z,58.90
2018-01-27T02:40:36.653Z,42.10
2018-01-27T02:43:03.546Z,41.83
2018-01-27T02:45:30.449Z,43.83
2018-01-27T02:47:57.350Z,42.15
2018-01-27T02:50:24.265Z,41.30
2018-01-27T02:52:51.155Z,44.63
2018-01-27T02:55:18.069Z,42.90
2018-01-27T02:57:44.946Z,44.45
2018-01-27T03:00:12.102Z,46.22
2018-01-27T03:02:38.964Z,46.90
2018-01-27T03:05:05.836Z,44.03
2018-01-27T03:07:32.717Z,44.55
2018-01-27T03:09:59.621Z,47.80
2018-01-27T03:12:26.545Z,45.33
2018-01-27T03:14:53.773Z,41.55
2018-01-27T03:17:20.679Z,44.27
2018-01-27T03:19:47.573Z,46.40
2018-01-27T03:22:14.474Z,42.80
2018-01-27T03:24:41.374Z,44.50
2018-01-27T03:27:08.613Z,48.67
2018-01-27T03:29:36.573Z,43.08
2018-01-27T03:32:03.479Z,43.47
2018-01-27T03:34:30.373Z,42.30
2018-01-27T03:36:57.508Z,47.77
2018-01-27T03:39:24.892Z,36.92
2018-01-27T03:41:52.016Z,39.42
2018-01-27T03:44:19.172Z,48.42
2018-01-27T03:46:46.323Z,43.83
2018-01-27T03:49:13.217Z,36.10
2018-01-27T03:51:40.089Z,39.67
2018-01-27T03:54:06.968Z,37.78
2018-01-27T03:56:33.833Z,36.53
2018-01-27T03:59:00.711Z,36.43
2018-01-27T04:01:27.617Z,34.97
2018-01-27T04:03:54.837Z,32.67
2018-01-27T04:06:22.000Z,34.20
2018-01-27T04:08:48.917Z,35.67
2018-01-27T04:11:15.829Z,34.08
2018-01-27T04:13:43.024Z,33.25
2018-01-27T04:16:10.172Z,35.50
2018-01-27T04:18:37.329Z,35.75
2018-01-27T04:21:04.476Z,41.95
2018-01-27T04:23:31.624Z,33.40
2018-01-27T04:25:58.532Z,50.67
2018-01-27T04:28:25.434Z,44.53
2018-01-27T04:30:52.376Z,59.80
2018-01-27T04:33:19.612Z,51.22
2018-01-27T04:35:46.513Z,59.42
2018-01-27T04:38:13.409Z,65.75
2018-01-27T04:40:40.318Z,62.25
2018-01-27T04:43:07.510Z,56.05
2018-01-27T04:45:34.379Z,73.83
2018-01-27T04:48:01.609Z,66.77
2018-01-27T04:50:28.517Z,57.25
2018-01-27T04:52:55.372Z,69.82
2018-01-27T04:55:22.269Z,51.97
2018-01-27T04:57:49.152Z,57.73
2018-01-27T05:00:16.458Z,67.37
2018-01-27T05:02:43.465Z,68.55
2018-01-27T05:05:10.390Z,64.12
2018-01-27T05:07:37.314Z,58.87
2018-01-27T05:10:04.202Z,59.83
2018-01-27T05:12:31.078Z,63.70
2018-01-27T05:14:57.953Z,64.93
2018-01-27T05:17:24.839Z,61.67
2018-01-27T05:19:51.696Z,68.40
2018-01-27T05:22:18.594Z,74.07
2018-01-27T05:24:45.487Z,76.72
2018-01-27T05:27:12.418Z,77.12
2018-01-27T05:29:39.330Z,73.68
2018-01-27T05:32:06.221Z,71.87
2018-01-27T05:34:33.371Z,65.13
2018-01-27T05:37:00.714Z,72.50
2018-01-27T05:39:27.592Z,77.25
2018-01-27T05:41:54.507Z,78.32
2018-01-27T05:44:21.390Z,73.72
2018-01-27T05:46:48.306Z,70.62
2018-01-27T05:49:15.436Z,74.95
2018-01-27T05:51:42.596Z,72.43
2018-01-27T05:54:09.740Z,72.22
2018-01-27T05:56:36.653Z,70.10
2018-01-27T05:59:03.588Z,65.87
2018-01-27T06:01:30.444Z,61.80
2018-01-27T06:03:57.634Z,59.23
2018-01-27T06:06:24.884Z,62.13
2018-01-27T06:08:51.761Z,63.58
2018-01-27T06:11:18.673Z,57.13
2018-01-27T06:13:45.556Z,53.55
2018-01-27T06:16:12.412Z,50.40
2018-01-27T06:18:39.277Z,46.65
2018-01-27T06:21:06.235Z,46.92
2018-01-27T06:23:33.154Z,43.05
2018-01-27T06:26:00.342Z,44.55
2018-01-27T06:28:27.490Z,44.80
2018-01-27T06:30:54.382Z,42.67
2018-01-27T06:33:21.274Z,39.67
2018-01-27T06:35:48.432Z,38.55
2018-01-27T06:38:15.581Z,37.45
2018-01-27T06:40:42.733Z,38.90
2018-01-27T06:43:09.666Z,33.80
2018-01-27T06:45:36.824Z,36.67
2018-01-27T06:48:03.977Z,34.92
2018-01-27T06:50:31.130Z,34.92
2018-01-27T06:52:58.176Z,36.15
2018-01-27T06:55:25.032Z,36.03
2018-01-27T06:57:52.164Z,36.75
2018-01-27T07:00:19.316Z,37.63
2018-01-27T07:02:46.206Z,37.42
2018-01-27T07:05:13.333Z,36.08
2018-01-27T07:07:40.249Z,35.70
2018-01-27T07:10:07.125Z,37.47
2018-01-27T07:12:34.018Z,40.92
2018-01-27T07:15:00.884Z,39.28
2018-01-27T07:17:27.756Z,45.35
2018-01-27T07:19:54.650Z,40.97
2018-01-27T07:22:21.547Z,43.40
2018-01-27T07:24:48.429Z,47.05
2018-01-27T07:27:15.296Z,43.37
2018-01-27T07:29:42.460Z,46.97
2018-01-27T07:32:09.332Z,52.20
2018-01-27T07:34:36.452Z,48.50
2018-01-27T07:37:03.609Z,47.95
2018-01-27T07:39:30.757Z,44.65
2018-01-27T07:41:57.689Z,42.58
2018-01-27T07:44:24.857Z,45.28
2018-01-27T07:46:51.741Z,45.20
2018-01-27T07:49:19.016Z,41.80
2018-01-27T07:51:46.834Z,44.63
2018-01-27T07:54:13.751Z,42.55
2018-01-27T07:56:40.670Z,43.40
2018-01-27T07:59:07.558Z,39.05
2018-01-27T08:01:34.436Z,38.15
2018-01-27T08:04:01.396Z,40.00
2018-01-27T08:06:28.589Z,38.78
2018-01-27T08:08:55.481Z,36.10
2018-01-27T08:11:22.373Z,38.20
2018-01-27T08:13:49.249Z,38.90
2018-01-27T08:16:16.104Z,40.25
2018-01-27T08:18:43.322Z,37.50
2018-01-27T08:21:10.676Z,38.78
2018-01-27T08:23:37.606Z,40.65
2018-01-27T08:26:05.387Z,38.55
2018-01-27T08:28:32.533Z,40.60
2018-01-27T08:30:59.483Z,40.37
2018-01-27T08:33:26.460Z,41.97
2018-01-27T08:35:53.496Z,39.72
2018-01-27T08:38:20.434Z,39.13
2018-01-27T08:40:47.285Z,40.47
2018-01-27T08:43:14.209Z,39.63
2018-01-27T08:45:41.109Z,44.10
2018-01-27T08:48:08.002Z,43.03
2018-01-27T08:50:34.897Z,46.47
2018-01-27T08:53:01.776Z,48.78
2018-01-27T08:55:28.937Z,48.17
2018-01-27T08:57:56.089Z,48.00
2018-01-27T09:00:23.017Z,47.62
2018-01-27T09:02:49.909Z,49.47
2018-01-27T09:05:17.129Z,51.47
2018-01-27T09:07:44.382Z,52.62
2018-01-27T09:10:11.276Z,62.05
2018-01-27T09:12:38.168Z,58.13
2018-01-27T09:15:05.042Z,59.92
2018-01-27T09:17:32.169Z,67.10
2018-01-27T09:19:59.317Z,69.70
2018-01-27T09:22:26.652Z,76.10
2018-01-27T09:24:53.542Z,66.78
2018-01-27T09:27:20.656Z,63.72
2018-01-27T09:29:47.524Z,69.85
2018-01-27T09:32:14.418Z,74.78
2018-01-27T09:34:41.617Z,71.20
2018-01-27T09:37:08.481Z,73.53
2018-01-27T09:39:35.700Z,73.43
2018-01-27T09:42:02.850Z,70.68
2018-01-27T09:44:29.742Z,67.30
2018-01-27T09:46:56.942Z,72.73
2018-01-27T09:49:24.197Z,68.25
2018-01-27T09:51:51.077Z,65.62
2018-01-27T09:54:17.987Z,74.18
2018-01-27T09:56:44.923Z,74.40
2018-01-27T09:59:11.792Z,75.45
2018-01-27T10:01:38.677Z,72.10
2018-01-27T10:04:05.874Z,75.20
2018-01-27T10:06:33.024Z,83.40
2018-01-27T10:08:59.930Z,74.28
2018-01-27T10:11:26.784Z,67.80
2018-01-27T10:13:53.651Z,71.25
2018-01-27T10:16:20.800Z,58.92
2018-01-27T10:18:47.700Z,66.07
2018-01-27T10:21:14.584Z,63.40
2018-01-27T10:23:41.482Z,57.33
2018-01-27T10:26:08.348Z,56.75
2018-01-27T10:28:35.220Z,54.50
2018-01-27T10:31:02.489Z,56.95
2018-01-27T10:33:29.394Z,57.92
2018-01-27T10:35:56.256Z,57.28
2018-01-27T10:38:23.417Z,54.40
2018-01-27T10:40:50.672Z,51.85
2018-01-27T10:43:17.533Z,52.08
2018-01-27T10:45:44.454Z,53.00
2018-01-27T10:48:11.342Z,54.60
2018-01-27T10:50:38.233Z,45.43
2018-01-27T10:53:05.404Z,43.83
2018-01-27T10:55:32.303Z,47.65
2018-01-27T11:00:44.143Z,42.47
2018-01-27T11:03:11.414Z,40.87
2018-01-27T11:05:38.345Z,30.90
2018-01-27T11:08:05.237Z,29.25
2018-01-27T11:10:32.137Z,25.95
2018-01-27T11:12:59.290Z,27.40
2018-01-27T11:15:26.148Z,24.67
2018-01-27T11:17:52.992Z,21.08
2018-01-27T11:20:19.877Z,21.90
2018-01-27T11:22:46.772Z,19.83
2018-01-27T11:25:13.640Z,17.62
2018-01-27T11:27:40.561Z,18.85
2018-01-27T11:30:07.449Z,18.83
2018-01-27T11:32:34.349Z,17.27
2018-01-27T11:35:01.194Z,16.35
2018-01-27T11:37:28.076Z,20.30
2018-01-27T11:39:54.982Z,18.87
2018-01-27T11:42:21.876Z,20.80
2018-01-27T11:44:48.765Z,19.87
2018-01-27T11:47:15.633Z,25.40
2018-01-27T11:49:42.753Z,21.45
2018-01-27T11:52:09.689Z,22.65
2018-01-27T11:54:36.853Z,23.52
2018-01-27T11:57:04.002Z,23.62
2018-01-27T11:59:30.908Z,23.40
2018-01-27T12:01:57.815Z,23.23
2018-01-27T12:04:24.726Z,27.62
2018-01-27T12:06:51.568Z,21.87
2018-01-27T12:09:18.441Z,22.70
2018-01-27T12:11:45.359Z,27.33
2018-01-27T12:14:12.290Z,23.62
2018-01-27T12:16:39.197Z,22.33
2018-01-27T12:19:06.076Z,27.70
2018-01-27T12:21:32.948Z,26.27
2018-01-27T12:23:59.838Z,26.12
2018-01-27T12:26:26.737Z,24.98
2018-01-27T12:28:53.627Z,27.67
2018-01-27T12:31:20.566Z,24.73
2018-01-27T12:33:47.429Z,27.73
2018-01-27T12:36:14.286Z,27.60
2018-01-27T12:38:41.202Z,27.70
2018-01-27T12:41:08.085Z,31.73
2018-01-27T12:43:34.948Z,22.25
2018-01-27T12:46:01.816Z,24.92
2018-01-27T12:48:28.664Z,24.25
2018-01-27T12:50:55.561Z,21.75
2018-01-27T12:53:22.449Z,27.42
2018-01-27T12:55:49.328Z,26.85
2018-01-27T12:58:16.294Z,24.57
2018-01-27T13:00:43.165Z,24.93
2018-01-27T13:03:10.072Z,29.80
2018-01-27T13:05:36.953Z,26.15
2018-01-27T13:08:03.881Z,26.15
2018-01-27T13:10:30.797Z,27.05
2018-01-27T13:12:57.689Z,30.10
2018-01-27T13:15:24.930Z,30.45
2018-01-27T13:17:51.825Z,32.08
2018-01-27T13:20:18.765Z,32.70
2018-01-27T13:22:45.621Z,32.55
2018-01-27T13:25:12.526Z,29.17
2018-01-27T13:27:39.656Z,33.42
2018-01-27T13:30:06.558Z,32.95
2018-01-27T13:32:33.434Z,41.22
2018-01-27T13:35:00.296Z,37.95
2018-01-27T13:37:27.781Z,36.85
2018-01-27T13:39:54.954Z,33.63
2018-01-27T13:42:21.864Z,41.85
2018-01-27T13:44:48.728Z,38.88
2018-01-27T13:47:15.626Z,47.83
2018-01-27T13:49:42.518Z,42.87
2018-01-27T13:52:09.421Z,45.90
2018-01-27T13:54:36.272Z,44.50
2018-01-27T13:57:03.151Z,45.70
2018-01-27T13:59:30.029Z,42.72
2018-01-27T14:01:56.933Z,45.50
2018-01-27T14:04:23.834Z,47.83
2018-01-27T14:06:50.767Z,44.42
2018-01-27T14:09:17.938Z,54.72
2018-01-27T14:11:44.788Z,45.80
2018-01-27T14:14:11.710Z,55.47
2018-01-27T14:16:38.613Z,51.80
2018-01-27T14:19:05.509Z,46.17
2018-01-27T14:21:32.380Z,46.50
2018-01-27T14:23:59.249Z,48.47
2018-01-27T14:26:26.178Z,53.78
2018-01-27T14:28:53.070Z,53.60
2018-01-27T14:31:19.977Z,53.83
2018-01-27T14:33:47.188Z,50.95
2018-01-27T14:36:14.068Z,53.45
2018-01-27T14:38:41.030Z,51.50
2018-01-27T14:41:07.901Z,53.90
2018-01-27T14:43:34.788Z,49.85
2018-01-27T14:46:01.692Z,49.30
2018-01-27T14:48:28.592Z,52.88
2018-01-27T14:50:55.806Z,52.10
2018-01-27T14:53:22.686Z,54.78
2018-01-27T14:55:49.896Z,54.03
2018-01-27T14:58:16.776Z,54.75
2018-01-27T15:00:43.653Z,57.10
2018-01-27T15:03:10.545Z,56.53
2018-01-27T15:05:37.479Z,55.45
2018-01-27T15:08:04.422Z,57.28
2018-01-27T15:10:31.318Z,65.07
2018-01-27T15:12:58.230Z,55.83
2018-01-27T15:15:25.108Z,53.70
2018-01-27T15:17:52.009Z,57.72
2018-01-27T15:20:18.905Z,57.42
2018-01-27T15:22:45.755Z,55.20
2018-01-27T15:25:12.637Z,61.53
2018-01-27T15:27:39.530Z,58.75
2018-01-27T15:30:06.420Z,58.22
2018-01-27T15:32:33.277Z,57.87
2018-01-27T15:35:00.174Z,56.60
2018-01-27T15:37:27.056Z,58.08
2018-01-27T15:39:53.904Z,62.75
2018-01-27T15:42:20.908Z,64.35
2018-01-27T15:44:47.808Z,59.05
2018-01-27T15:47:14.700Z,63.00
2018-01-27T15:49:41.638Z,61.70
2018-01-27T15:52:08.529Z,57.80
2018-01-27T15:54:35.441Z,55.12
2018-01-27T15:57:02.312Z,67.12
2018-01-27T15:59:29.203Z,54.42
2018-01-27T16:01:56.108Z,61.08
2018-01-27T16:04:22.972Z,60.15
2018-01-27T16:06:49.853Z,58.80
2018-01-27T16:09:16.734Z,55.90
2018-01-27T16:11:43.597Z,59.17
2018-01-27T16:14:10.502Z,54.33
2018-01-27T16:16:37.413Z,53.97
2018-01-27T16:19:04.272Z,55.10
2018-01-27T16:21:31.156Z,54.60
2018-01-27T16:23:58.012Z,55.90
2018-01-27T16:26:24.917Z,56.47
2018-01-27T16:28:51.789Z,51.70
2018-01-27T16:31:18.641Z,57.80
2018-01-27T16:33:45.531Z,54.40
2018-01-27T16:36:12.417Z,54.35
2018-01-27T16:38:39.276Z,50.12
2018-01-27T16:41:06.156Z,46.13
2018-01-27T16:43:33.050Z,59.47
2018-01-27T16:45:59.955Z,53.78
2018-01-27T16:48:26.861Z,59.42
2018-01-27T16:50:53.781Z,52.78
2018-01-27T16:53:20.676Z,54.72
2018-01-27T16:55:47.561Z,64.90
2018-01-27T16:58:14.448Z,50.17
2018-01-27T17:00:41.332Z,50.40
2018-01-27T17:03:08.239Z,45.58
2018-01-27T17:05:35.096Z,46.22
2018-01-27T17:08:01.989Z,45.07
2018-01-27T17:10:28.848Z,47.37
2018-01-27T17:12:55.744Z,51.92
2018-01-27T17:15:22.597Z,46.85
2018-01-27T17:17:49.453Z,47.15
2018-01-27T17:20:16.350Z,53.15
2018-01-27T17:22:43.235Z,50.80
2018-01-27T17:25:10.126Z,49.20
2018-01-27T17:27:37.000Z,51.63
2018-01-27T17:30:03.953Z,51.65
2018-01-27T17:32:30.853Z,46.03
2018-01-27T17:34:57.734Z,46.95
2018-01-27T17:37:24.605Z,44.67
2018-01-27T17:39:51.521Z,44.42
2018-01-27T17:42:18.399Z,43.45
2018-01-27T17:44:45.268Z,45.40
2018-01-27T17:47:12.117Z,41.53
2018-01-27T17:49:39.349Z,37.57
2018-01-27T17:52:06.221Z,40.00
2018-01-27T17:54:33.072Z,38.92
2018-01-27T17:56:59.957Z,40.60
2018-01-27T17:59:26.814Z,40.47
2018-01-27T18:01:53.657Z,39.83
2018-01-27T18:04:20.536Z,42.28
2018-01-27T18:06:47.400Z,42.92
2018-01-27T18:09:14.281Z,45.05
2018-01-27T18:11:41.160Z,43.40
2018-01-27T18:14:08.042Z,42.67
2018-01-27T18:16:34.940Z,44.25
2018-01-27T18:19:01.813Z,40.72
2018-01-27T18:21:28.714Z,39.50
2018-01-27T18:23:55.622Z,39.90
2018-01-27T18:26:22.485Z,39.63
2018-01-27T18:28:49.368Z,40.60
2018-01-27T18:31:16.258Z,39.70
2018-01-27T18:33:43.146Z,43.10
2018-01-27T18:36:10.027Z,37.88
2018-01-27T18:38:36.918Z,42.00
2018-01-27T18:41:03.828Z,41.05
2018-01-27T18:43:30.818Z,39.37
2018-01-27T18:45:57.693Z,38.67
2018-01-27T18:48:24.548Z,38.87
2018-01-27T18:50:51.441Z,37.90
2018-01-27T18:53:18.342Z,41.08
2018-01-27T18:55:45.255Z,41.92
2018-01-27T18:58:12.157Z,40.85
2018-01-27T19:00:39.042Z,37.65
2018-01-27T19:03:05.927Z,40.00
2018-01-27T19:05:32.824Z,42.40
2018-01-27T19:07:59.731Z,41.60
2018-01-27T19:10:26.658Z,44.45
2018-01-27T19:12:53.533Z,39.88
2018-01-27T19:15:20.429Z,40.45
2018-01-27T19:17:47.341Z,40.83
2018-01-27T19:20:14.250Z,36.08
2018-01-27T19:22:41.136Z,42.40
2018-01-27T19:25:08.050Z,38.65
2018-01-27T19:27:34.928Z,37.47
2018-01-27T19:30:01.854Z,38.90
2018-01-27T19:32:28.781Z,37.95
2018-01-27T19:34:55.660Z,39.00
2018-01-27T19:37:22.554Z,37.67
2018-01-27T19:39:49.451Z,41.63
2018-01-27T19:42:16.350Z,43.17
2018-01-27T19:44:43.267Z,40.13
2018-01-27T19:47:10.186Z,36.83
2018-01-27T19:49:37.093Z,38.83
2018-01-27T19:52:04.018Z,37.20
2018-01-27T19:54:31.228Z,38.20
2018-01-27T19:56:58.119Z,35.15
2018-01-27T19:59:24.990Z,37.75
2018-01-27T20:01:51.886Z,38.60
2018-01-27T20:04:18.764Z,36.90
2018-01-27T20:06:45.644Z,38.45
2018-01-27T20:09:12.506Z,37.97
2018-01-27T20:11:39.398Z,35.63
2018-01-27T20:14:06.582Z,36.08
2018-01-27T20:16:33.469Z,37.53
2018-01-27T20:19:00.317Z,36.90
2018-01-27T20:21:27.172Z,39.88
2018-01-27T20:23:54.149Z,36.45
2018-01-27T20:26:21.062Z,37.05
2018-01-27T20:28:47.938Z,41.15
2018-01-27T20:31:14.853Z,37.70
2018-01-27T20:33:42.036Z,37.15
2018-01-27T20:36:08.921Z,37.45
2018-01-27T20:38:35.779Z,36.33
2018-01-27T20:41:02.976Z,36.75
2018-01-27T20:43:29.854Z,37.85
2018-01-27T20:45:56.736Z,37.88
2018-01-27T20:48:23.912Z,34.33
2018-01-27T20:50:50.764Z,34.77
2018-01-27T20:53:17.672Z,35.72
2018-01-27T20:55:44.638Z,32.55
2018-01-27T20:58:11.521Z,33.85
2018-01-27T21:00:38.400Z,37.03
2018-01-27T21:03:05.256Z,34.00
2018-01-27T21:05:32.153Z,30.88
2018-01-27T21:07:59.019Z,37.75
2018-01-27T21:10:25.916Z,32.13
2018-01-27T21:12:52.838Z,31.87
2018-01-27T21:15:19.746Z,32.55
2018-01-27T21:17:46.637Z,32.20
2018-01-27T21:20:13.554Z,30.92
2018-01-27T21:22:40.458Z,29.02
2018-01-27T21:25:07.349Z,29.33
2018-01-27T21:27:34.216Z,34.20
2018-01-27T21:30:01.110Z,29.33
2018-01-27T21:32:28.014Z,29.17
2018-01-27T21:34:54.900Z,26.90
2018-01-27T21:37:21.794Z,26.70
2018-01-27T21:39:48.701Z,27.00
2018-01-27T21:42:15.572Z,26.10
2018-01-27T21:44:42.514Z,24.93
2018-01-27T21:47:09.414Z,27.05
2018-01-27T21:49:36.276Z,30.00
2018-01-27T21:52:03.133Z,27.60
2018-01-27T21:54:30.012Z,27.98
2018-01-27T21:56:56.897Z,26.45
2018-01-27T21:59:23.797Z,27.67
2018-01-27T22:01:50.685Z,26.90
2018-01-27T22:04:17.582Z,26.30
2018-01-27T22:06:44.493Z,28.45
2018-01-27T22:09:11.368Z,25.60
2018-01-27T22:11:38.253Z,25.25
2018-01-27T22:14:05.145Z,26.60
2018-01-27T22:16:32.037Z,23.83
2018-01-27T22:18:58.887Z,21.73
2018-01-27T22:21:25.745Z,24.00
2018-01-27T22:23:52.596Z,22.45
2018-01-27T22:26:19.506Z,22.58
2018-01-27T22:28:46.389Z,23.67
2018-01-27T22:31:13.258Z,21.08
2018-01-27T22:33:40.430Z,22.20
2018-01-27T22:36:07.334Z,23.23
2018-01-27T22:38:34.230Z,18.50
2018-01-27T22:41:01.100Z,20.45
2018-01-27T22:43:28.210Z,17.30
2018-01-27T22:45:55.569Z,18.37
2018-01-27T22:48:22.469Z,17.40
2018-01-27T22:50:49.321Z,17.17
2018-01-27T22:53:16.282Z,17.98
2018-01-27T22:55:43.450Z,19.30
2018-01-27T22:58:10.318Z,17.55
2018-01-27T23:00:37.194Z,18.87
2018-01-27T23:03:04.056Z,16.95
2018-01-27T23:05:30.941Z,15.52
2018-01-27T23:07:57.841Z,15.10
2018-01-27T23:10:24.717Z,15.33
2018-01-27T23:12:51.576Z,15.13
2018-01-27T23:15:18.444Z,14.38
2018-01-27T23:17:45.357Z,14.13
2018-01-27T23:20:12.266Z,14.00
2018-01-27T23:22:39.211Z,14.73
2018-01-27T23:25:06.089Z,12.45
2018-01-27T23:27:33.044Z,10.88
2018-01-27T23:30:00.280Z,13.43
2018-01-27T23:32:27.141Z,15.32
2018-01-27T23:34:54.116Z,14.80
2018-01-27T23:37:20.969Z,11.25
2018-01-27T23:39:47.820Z,14.25
2018-01-27T23:42:14.705Z,11.93
2018-01-27T23:44:41.591Z,10.38
2018-01-27T23:47:08.473Z,11.65
2018-01-27T23:49:35.369Z,11.68
2018-01-27T23:52:02.262Z,11.80
2018-01-27T23:54:29.136Z,13.65
2018-01-27T23:56:56.002Z,12.40
2018-01-27T23:59:22.856Z,12.05
